Time;durP1;ratioP1;P1;durP2;ratioP2;P2;SDS_P1;SDS_P2;PMS_P1;PMS_P2;Temp;Humidity;BMP_temperature;BMP_pressure;BME280_temperature;BME280_humidity;BME280_pressure;Samples;Min_cycle;Max_cycle;Signal;HPM_P1;HPM_P2
2022/12/05 00:01:30;;;;;;;6.87;3.27;;;;;;;-5.29;57.73;102789.00;1580458;89;21183;-70
2022/12/05 00:03:58;;;;;;;7.50;3.45;;;;;;;-5.31;57.77;102788.72;1580606;89;21008;-70
2022/12/05 00:06:27;;;;;;;10.70;3.85;;;;;;;-5.32;57.80;102790.97;1580241;90;21104;-71
2022/12/05 00:08:54;;;;;;;7.03;3.17;;;;;;;-5.37;57.84;102787.34;1580395;90;21164;-72
2022/12/05 00:11:24;;;;;;;4.92;2.52;;;;;;;-5.36;57.94;102788.17;1580359;89;21159;-72
2022/12/05 00:13:52;;;;;;;5.67;2.60;;;;;;;-5.37;57.96;102787.34;1580514;89;21119;-71
2022/12/05 00:16:22;;;;;;;7.30;2.98;;;;;;;-5.40;57.95;102792.73;1580833;89;21158;-70
2022/12/05 00:18:51;;;;;;;8.23;3.40;;;;;;;-5.45;58.00;102789.13;1580816;90;21165;-71
2022/12/05 00:21:22;;;;;;;11.05;3.62;;;;;;;-5.47;58.02;102794.89;1580504;90;21137;-70
2022/12/05 00:23:49;;;;;;;7.90;3.70;;;;;;;-5.51;58.09;102792.59;1607562;89;21028;-74
2022/12/05 00:26:16;;;;;;;9.53;3.75;;;;;;;-5.55;58.19;102785.91;1606798;88;21005;-71
2022/12/05 00:28:43;;;;;;;7.37;3.45;;;;;;;-5.58;58.26;102784.80;1606891;89;21107;-71
2022/12/05 00:31:15;;;;;;;8.00;3.35;;;;;;;-5.60;58.37;102778.84;1606833;89;21008;-70
2022/12/05 00:33:42;;;;;;;8.28;2.75;;;;;;;-5.62;58.38;102781.56;1607346;89;21152;-70
2022/12/05 00:36:20;;;;;;;8.28;3.10;;;;;;;-5.63;58.44;102779.87;1606768;89;21060;-70
2022/12/05 00:38:47;;;;;;;6.22;2.75;;;;;;;-5.68;58.51;102784.55;1606598;89;21107;-70
2022/12/05 00:41:22;;;;;;;9.65;2.90;;;;;;;-5.73;58.57;102785.28;1606723;89;21068;-71
2022/12/05 00:43:48;;;;;;;8.48;3.20;;;;;;;-5.76;58.68;102786.77;1606812;89;21008;-71
2022/12/05 00:46:18;;;;;;;9.18;3.10;;;;;;;-5.77;58.83;102779.44;1606648;89;21546;-70
2022/12/05 00:48:45;;;;;;;6.65;2.95;;;;;;;-5.76;58.86;102778.96;1606831;89;21091;-70
2022/12/05 00:51:18;;;;;;;9.58;3.75;;;;;;;-5.77;58.93;102779.91;1607557;89;21111;-70
2022/12/05 00:53:46;;;;;;;9.10;3.92;;;;;;;-5.79;58.99;102777.41;1613025;89;21049;-70
2022/12/05 00:56:16;;;;;;;7.65;3.33;;;;;;;-5.78;59.05;102779.55;1595926;87;21112;-71
2022/12/05 00:58:42;;;;;;;7.05;3.12;;;;;;;-5.78;59.05;102766.06;1626881;88;21139;-70
2022/12/05 01:01:19;;;;;;;8.58;3.58;;;;;;;-5.78;59.08;102767.36;1626739;88;21627;-70
2022/12/05 01:03:47;;;;;;;9.03;3.90;;;;;;;-5.79;59.10;102768.73;1627258;88;20995;-70
2022/12/05 01:06:14;;;;;;;7.53;3.80;;;;;;;-5.80;59.13;102763.17;1605549;86;21150;-71
2022/12/05 01:08:41;;;;;;;8.88;3.60;;;;;;;-5.80;59.15;102761.87;1653554;86;21090;-71
2022/12/05 01:11:09;;;;;;;11.12;4.12;;;;;;;-5.84;59.15;102753.42;1653521;86;21749;-70
2022/12/05 01:13:37;;;;;;;8.80;3.80;;;;;;;-5.83;59.19;102754.25;1653506;86;20972;-70
2022/12/05 01:16:05;;;;;;;10.53;3.52;;;;;;;-5.85;59.25;102758.27;1653429;86;21064;-71
2022/12/05 01:18:32;;;;;;;7.58;3.92;;;;;;;-5.85;59.35;102753.53;1646134;86;21038;-71
2022/12/05 01:20:58;;;;;;;7.92;3.33;;;;;;;-5.86;59.41;102746.17;1613811;86;21471;-71
2022/12/05 01:23:25;;;;;;;8.23;3.70;;;;;;;-5.85;59.41;102743.12;1650206;86;21162;-71
2022/12/05 01:25:52;;;;;;;9.00;3.70;;;;;;;-5.85;59.46;102733.55;1308858;85;10000307;-71
2022/12/05 01:28:19;;;;;;;9.60;3.62;;;;;;;-5.86;59.48;102727.12;1640545;86;22245;-72
2022/12/05 01:30:47;;;;;;;6.30;3.12;;;;;;;-5.87;59.58;102732.80;1651558;86;21059;-71
2022/12/05 01:33:15;;;;;;;8.10;3.35;;;;;;;-5.85;59.59;102727.04;1639292;86;21598;-71
2022/12/05 01:35:42;;;;;;;8.65;3.50;;;;;;;-5.87;59.63;102725.45;1650734;86;21102;-71
2022/12/05 01:38:10;;;;;;;7.83;3.00;;;;;;;-5.89;59.68;102725.53;1645276;86;21286;-70
2022/12/05 01:40:37;;;;;;;6.53;3.22;;;;;;;-5.88;59.73;102730.30;1620672;86;21565;-71
2022/12/05 01:43:04;;;;;;;7.67;3.20;;;;;;;-5.91;59.85;102718.31;1649839;86;21051;-71
2022/12/05 01:45:40;;;;;;;9.60;3.50;;;;;;;-5.93;59.91;102715.81;1647592;86;21125;-71
2022/12/05 01:48:33;;;;;;;8.63;3.30;;;;;;;-5.91;59.97;102713.94;1650478;86;21023;-72
2022/12/05 01:51:00;;;;;;;8.25;3.15;;;;;;;-5.95;60.07;102712.50;1641589;86;21229;-69
2022/12/05 01:53:27;;;;;;;8.95;3.55;;;;;;;-5.98;60.14;102707.48;1645750;86;21060;-69
2022/12/05 01:55:53;;;;;;;9.40;3.25;;;;;;;-5.98;60.18;102709.25;1619883;86;21062;-70
2022/12/05 01:58:20;;;;;;;8.60;3.75;;;;;;;-5.98;60.24;102705.35;1647061;86;21186;-70
2022/12/05 02:00:47;;;;;;;10.20;3.45;;;;;;;-6.01;60.35;102700.34;1624791;88;21099;-70
2022/12/05 02:03:19;;;;;;;8.45;3.30;;;;;;;-6.02;60.38;102697.34;1639873;86;21092;-69
2022/12/05 02:05:49;;;;;;;9.40;3.37;;;;;;;-6.01;60.46;102696.44;1651417;86;21048;-70
2022/12/05 02:08:15;;;;;;;7.95;2.85;;;;;;;-6.05;60.56;102695.80;1645199;86;21054;-69
2022/12/05 02:10:49;;;;;;;7.33;3.30;;;;;;;-6.05;60.61;102693.66;1651236;86;21091;-70
2022/12/05 02:13:45;;;;;;;8.85;4.10;;;;;;;-6.04;60.68;102696.62;1636208;86;21158;-70
2022/12/05 02:16:17;;;;;;;6.30;3.27;;;;;;;-6.03;60.72;102692.61;1647098;86;21612;-70
2022/12/05 02:19:07;;;;;;;9.33;3.10;;;;;;;-6.01;60.71;102694.66;1641346;86;21133;-70
2022/12/05 02:22:24;;;;;;;6.95;3.47;;;;;;;-6.02;60.75;102699.51;1649502;86;21052;-71
2022/12/05 02:25:14;;;;;;;7.83;3.02;;;;;;;-6.05;60.76;102702.30;1651074;86;21071;-69
2022/12/05 02:27:57;;;;;;;9.08;3.40;;;;;;;-6.03;60.81;102705.62;1633490;86;21086;-69
2022/12/05 02:30:24;;;;;;;7.08;2.67;;;;;;;-6.01;60.88;102705.07;1639441;86;21248;-69
2022/12/05 02:33:11;;;;;;;8.45;2.90;;;;;;;-6.00;60.93;102698.92;1641168;86;21130;-69
2022/12/05 02:35:51;;;;;;;7.25;2.67;;;;;;;-6.02;60.95;102701.25;1644845;86;21134;-69
2022/12/05 02:38:55;;;;;;;7.05;3.25;;;;;;;-5.99;61.00;102711.02;1642721;85;21102;-69
2022/12/05 02:41:29;;;;;;;5.80;2.77;;;;;;;-6.01;61.03;102701.64;1644899;86;21055;-68
2022/12/05 02:44:19;;;;;;;6.92;3.05;;;;;;;-5.99;61.07;102703.66;1641153;86;21145;-70
2022/12/05 02:46:46;;;;;;;6.10;2.90;;;;;;;-5.99;61.10;102710.16;1621676;88;21084;-69
2022/12/05 02:49:18;;;;;;;6.90;3.42;;;;;;;-6.01;61.08;102712.88;1638037;86;21095;-69
2022/12/05 02:51:46;;;;;;;10.55;3.58;;;;;;;-6.02;61.08;102709.91;1646741;86;21146;-69
2022/12/05 02:54:17;;;;;;;6.20;3.02;;;;;;;-6.02;61.10;102711.22;1637406;86;21071;-69
2022/12/05 02:56:45;;;;;;;7.90;3.52;;;;;;;-6.03;61.17;102713.42;1644431;86;21860;-69
2022/12/05 02:59:11;;;;;;;7.17;2.90;;;;;;;-6.02;61.22;102713.81;1651908;86;21495;-69
2022/12/05 03:01:38;;;;;;;8.93;2.87;;;;;;;-6.03;61.24;102712.59;1634282;86;21083;-69
2022/12/05 03:04:06;;;;;;;7.10;3.25;;;;;;;-6.04;61.25;102711.77;1639662;86;21146;-70
2022/12/05 03:06:50;;;;;;;6.05;3.05;;;;;;;-6.06;61.29;102713.61;1622477;86;21688;-70
2022/12/05 03:09:23;;;;;;;7.08;3.20;;;;;;;-6.09;61.33;102708.59;1648434;86;22268;-70
2022/12/05 03:12:04;;;;;;;7.83;2.90;;;;;;;-6.05;61.33;102717.08;1649834;86;21114;-70
2022/12/05 03:14:36;;;;;;;5.80;2.75;;;;;;;-6.06;61.39;102716.21;1642176;86;21047;-70
2022/12/05 03:17:09;;;;;;;5.83;2.90;;;;;;;-6.07;61.37;102710.65;1641794;86;21518;-70
2022/12/05 03:20:17;;;;;;;5.40;2.98;;;;;;;-6.05;61.40;102716.61;1642383;85;21111;-70
2022/12/05 03:23:08;;;;;;;7.85;3.00;;;;;;;-6.04;61.44;102718.27;1651142;85;21141;-69
2022/12/05 03:25:55;;;;;;;6.75;2.60;;;;;;;-6.05;61.47;102714.00;1651664;86;27067;-70
2022/12/05 03:28:36;;;;;;;10.95;3.42;;;;;;;-6.03;61.50;102723.83;1651568;86;21611;-69
2022/12/05 03:31:08;;;;;;;7.08;2.75;;;;;;;-6.04;61.51;102720.87;1641453;86;21053;-70
2022/12/05 03:33:39;;;;;;;8.90;2.65;;;;;;;-6.05;61.51;102719.68;1648456;86;21562;-71
2022/12/05 03:36:11;;;;;;;4.08;1.85;;;;;;;-6.04;61.56;102718.73;1649034;86;21364;-71
2022/12/05 03:39:02;;;;;;;7.58;3.00;;;;;;;-6.02;61.55;102730.73;1640363;86;20968;-71
2022/12/05 03:41:40;;;;;;;5.60;2.37;;;;;;;-5.99;61.56;102720.57;1629881;86;20993;-69
2022/12/05 03:44:20;;;;;;;6.25;2.85;;;;;;;-6.00;61.61;102716.31;1657475;86;21114;-70
2022/12/05 03:47:05;;;;;;;5.28;2.55;;;;;;;-6.04;61.61;102708.33;1592143;87;24338;-70
2022/12/05 03:49:49;;;;;;;5.55;2.72;;;;;;;-6.05;61.67;102709.27;1592118;87;21175;-71
2022/12/05 03:52:20;;;;;;;5.10;2.60;;;;;;;-6.03;61.66;102709.52;1606849;89;20984;-72
2022/12/05 03:54:54;;;;;;;5.90;2.47;;;;;;;-6.05;61.70;102700.17;1611812;89;21083;-71
2022/12/05 04:26:26;;;;;;;9.73;3.60;;;;;;;-5.91;64.35;102690.52;1760434;80;23367;-66
2022/12/05 04:29:06;;;;;;;7.35;3.25;;;;;;;-5.93;63.99;102684.59;1754017;81;21029;-67
2022/12/05 04:31:38;;;;;;;4.85;2.25;;;;;;;-5.95;63.75;102686.48;1747697;81;21894;-66
2022/12/05 04:34:07;;;;;;;6.62;3.02;;;;;;;-5.95;63.58;102694.28;1718395;83;21040;-66
2022/12/05 04:36:43;;;;;;;4.92;2.60;;;;;;;-5.96;63.38;102691.29;1687124;84;21050;-68
2022/12/05 04:39:15;;;;;;;5.50;2.52;;;;;;;-5.97;63.29;102690.93;1752239;81;21516;-67
2022/12/05 04:42:00;;;;;;;6.05;2.90;;;;;;;-5.95;63.24;102693.45;1700107;81;24636;-67
2022/12/05 04:44:33;;;;;;;5.92;2.27;;;;;;;-5.92;63.17;102684.95;1684463;81;21306;-67
2022/12/05 04:47:02;;;;;;;7.00;3.22;;;;;;;-5.91;63.10;102681.88;1753581;81;20987;-67
2022/12/05 04:49:29;;;;;;;6.65;3.00;;;;;;;-5.90;63.08;102679.64;1750925;81;21505;-67
2022/12/05 04:52:00;;;;;;;6.28;2.80;;;;;;;-5.85;63.08;102678.06;1757527;81;21072;-66
2022/12/05 04:54:44;;;;;;;7.22;3.35;;;;;;;-5.82;63.09;102674.80;1725202;81;21071;-67
2022/12/05 04:57:22;;;;;;;7.22;3.02;;;;;;;-5.74;63.03;102683.41;1724516;83;21539;-69
2022/12/05 04:59:50;;;;;;;8.03;3.27;;;;;;;-5.69;62.97;102677.45;1742036;81;21006;-67
2022/12/05 05:02:22;;;;;;;5.10;2.70;;;;;;;-5.63;62.88;102676.20;1754938;81;21545;-67
2022/12/05 05:04:50;;;;;;;;;;;;;;;-5.61;62.75;102673.87;1711829;83;21039;-66
2022/12/05 05:07:17;;;;;;;5.03;3.00;;;;;;;-5.59;62.67;102677.23;1748057;81;20172;-67
2022/12/05 05:09:44;;;;;;;6.12;2.85;;;;;;;-5.54;62.64;102681.66;1744717;81;21965;-66
2022/12/05 05:12:11;;;;;;;5.87;2.83;;;;;;;-5.51;62.58;102676.25;1724546;83;21073;-66
2022/12/05 05:14:38;;;;;;;7.90;2.85;;;;;;;-5.50;62.47;102671.40;1724731;81;21029;-67
2022/12/05 05:17:05;;;;;;;6.03;2.75;;;;;;;-5.48;62.49;102667.41;1718707;83;21104;-66
2022/12/05 05:19:31;;;;;;;7.35;3.37;;;;;;;-5.43;62.52;102666.19;1732208;80;21041;-68
2022/12/05 05:21:59;;;;;;;7.72;3.40;;;;;;;-5.39;62.50;102664.21;1735879;82;21294;-69
2022/12/05 05:24:26;;;;;;;5.78;3.10;;;;;;;-5.56;62.77;102668.36;1714216;82;21049;-67
2022/12/05 05:26:53;;;;;;;8.03;3.08;;;;;;;-5.39;62.65;102668.12;1714667;81;21083;-71
2022/12/05 05:29:19;;;;;;;6.05;3.22;;;;;;;-5.30;62.52;102666.66;1742803;81;21542;-68
2022/12/05 05:31:46;;;;;;;6.97;3.27;;;;;;;-5.71;62.94;102662.39;1744112;80;20998;-68
2022/12/05 05:34:14;;;;;;;5.45;2.95;;;;;;;-5.98;63.86;102672.36;1723819;83;21195;-67
2022/12/05 05:36:42;;;;;;;7.12;2.98;;;;;;;-6.06;64.24;102668.56;1722042;83;21091;-68
2022/12/05 05:39:14;;;;;;;5.47;2.70;;;;;;;-5.40;63.39;102674.23;1716162;82;21043;-68
2022/12/05 05:41:41;;;;;;;6.50;3.30;;;;;;;-5.23;62.97;102669.25;1721117;82;21072;-66
2022/12/05 05:44:08;;;;;;;8.23;3.17;;;;;;;-5.15;62.68;102673.47;1704325;82;21082;-66
2022/12/05 05:46:35;;;;;;;6.70;3.12;;;;;;;-5.63;63.40;102677.50;1703578;83;21224;-67
2022/12/05 05:49:01;;;;;;;5.72;3.37;;;;;;;-5.88;64.12;102682.98;1703723;84;21038;-68
2022/12/05 05:51:29;;;;;;;6.55;3.30;;;;;;;-5.92;64.35;102686.25;1703680;83;21027;-66
2022/12/05 05:53:56;;;;;;;8.30;3.87;;;;;;;-5.95;64.50;102682.58;1703444;84;21561;-67
2022/12/05 05:56:23;;;;;;;8.25;3.77;;;;;;;-5.95;64.62;102687.78;1713730;82;21038;-68
2022/12/05 05:58:56;;;;;;;5.55;3.17;;;;;;;-5.92;64.75;102692.76;1732856;82;21306;-68
2022/12/05 06:01:23;;;;;;;6.25;3.17;;;;;;;-5.90;64.82;102693.48;1731577;82;21026;-67
2022/12/05 06:03:51;;;;;;;5.42;2.75;;;;;;;-5.91;64.97;102697.02;1733205;82;21058;-67
2022/12/05 06:06:18;;;;;;;8.30;3.30;;;;;;;-5.82;64.98;102690.41;1753741;81;21023;-66
2022/12/05 06:08:44;;;;;;;7.22;3.55;;;;;;;-5.80;64.97;102687.70;1705046;81;21090;-67
2022/12/05 06:11:17;;;;;;;8.35;3.58;;;;;;;-5.79;64.88;102697.16;1740063;81;21532;-66
2022/12/05 06:13:44;;;;;;;5.30;3.00;;;;;;;-5.79;64.90;102698.47;1734149;81;21034;-68
2022/12/05 06:16:14;;;;;;;6.33;3.30;;;;;;;-5.78;64.90;102694.95;1753669;80;21046;-67
2022/12/05 06:18:45;;;;;;;7.08;3.65;;;;;;;-5.72;64.87;102704.98;1749959;80;21005;-69
2022/12/05 06:21:12;;;;;;;6.50;3.45;;;;;;;-5.70;64.82;102698.72;1747591;80;21132;-68
2022/12/05 06:23:40;;;;;;;7.15;4.10;;;;;;;-5.71;64.67;102696.23;1718283;81;21157;-67
2022/12/05 06:26:14;;;;;;;8.03;4.00;;;;;;;-5.73;64.64;102694.17;1723269;83;21102;-67
2022/12/05 06:28:40;;;;;;;6.92;3.65;;;;;;;-5.74;64.68;102687.31;1734472;81;21022;-67
2022/12/05 06:31:14;;;;;;;6.40;3.47;;;;;;;-5.74;64.73;102699.02;1720862;81;21047;-68
2022/12/05 06:33:42;;;;;;;7.28;3.85;;;;;;;-5.40;64.15;102690.34;1698142;84;21075;-66
2022/12/05 06:36:14;;;;;;;7.47;3.52;;;;;;;-5.30;63.94;102684.89;1713188;81;21556;-67
2022/12/05 06:38:40;;;;;;;7.87;3.35;;;;;;;-5.26;63.76;102688.98;1752398;80;21520;-68
2022/12/05 06:41:10;;;;;;;7.00;3.67;;;;;;;-5.22;63.74;102689.14;1741655;81;21025;-68
2022/12/05 06:43:36;;;;;;;8.40;3.40;;;;;;;-5.23;63.58;102688.31;1753778;81;21572;-70
2022/12/05 06:46:05;;;;;;;7.47;3.50;;;;;;;-5.23;63.49;102688.31;1721625;81;21470;-68
2022/12/05 06:48:34;;;;;;;8.35;4.03;;;;;;;-5.24;63.48;102689.70;1704540;82;21216;-69
2022/12/05 06:51:00;;;;;;;7.47;3.50;;;;;;;-5.24;63.57;102685.32;1703422;82;21061;-69
2022/12/05 06:53:27;;;;;;;8.68;4.00;;;;;;;-5.20;63.59;102681.60;1732113;82;21026;-68
2022/12/05 06:56:02;;;;;;;9.30;4.15;;;;;;;-5.12;63.58;102688.07;1753859;80;21046;-70
2022/12/05 06:58:29;;;;;;;8.13;3.80;;;;;;;-4.60;62.85;102684.08;1740079;80;21042;-70
2022/12/05 07:03:42;;;;;;;8.03;3.98;;;;;;;-4.14;61.40;102678.75;1753954;81;21038;-71
2022/12/05 07:06:09;;;;;;;10.65;4.10;;;;;;;-4.07;60.97;102678.67;1752921;81;21038;-68
2022/12/05 07:08:38;;;;;;;9.90;4.83;;;;;;;-4.04;60.74;102679.29;1727142;81;21076;-67
2022/12/05 07:11:05;;;;;;;7.25;3.65;;;;;;;-3.97;60.64;102684.91;1718818;82;21138;-68
2022/12/05 07:13:31;;;;;;;7.10;4.10;;;;;;;-4.12;60.57;102681.59;1709554;82;21159;-69
2022/12/05 07:15:58;;;;;;;7.83;4.30;;;;;;;-4.11;60.75;102691.59;1753178;80;21034;-69
2022/12/05 07:18:25;;;;;;;8.98;4.42;;;;;;;-3.89;60.31;102686.48;1753838;81;20999;-70
2022/12/05 07:21:08;;;;;;;10.28;4.42;;;;;;;-3.86;59.99;102686.27;1747368;80;21044;-70
2022/12/05 07:23:35;;;;;;;6.58;4.15;;;;;;;-3.80;59.99;102690.22;1750460;80;21037;-67
2022/12/05 07:26:07;;;;;;;7.62;4.30;;;;;;;-3.75;59.99;102693.35;1735033;81;21964;-70
2022/12/05 07:28:35;;;;;;;8.63;4.45;;;;;;;-3.73;59.92;102693.23;1758273;80;21050;-71
2022/12/05 07:31:04;;;;;;;9.55;4.33;;;;;;;-3.72;59.87;102693.10;1734332;81;21081;-69
2022/12/05 07:33:31;;;;;;;7.58;4.30;;;;;;;-3.69;59.84;102689.44;1762402;79;21026;-69
2022/12/05 07:36:02;;;;;;;8.55;4.67;;;;;;;-3.67;59.82;102689.70;1752658;81;21168;-71
2022/12/05 07:38:29;;;;;;;8.05;4.50;;;;;;;-3.66;59.76;102691.83;1753241;81;21185;-71
2022/12/05 07:40:56;;;;;;;10.03;4.30;;;;;;;-3.66;59.76;102688.74;1726475;81;21100;-69
2022/12/05 07:43:23;;;;;;;7.60;4.28;;;;;;;-3.62;59.85;102687.60;1749273;80;21018;-70
2022/12/05 07:45:51;;;;;;;10.48;4.95;;;;;;;-3.58;59.82;102682.98;1738602;81;21082;-68
2022/12/05 07:48:18;;;;;;;10.43;5.40;;;;;;;-3.53;59.82;102682.16;1754405;81;21203;-71
2022/12/05 07:50:44;;;;;;;9.48;4.87;;;;;;;-3.54;59.70;102671.36;1724858;81;21172;-68
2022/12/05 07:53:11;;;;;;;10.65;4.97;;;;;;;-3.52;59.72;102673.84;1752778;81;21616;-69
2022/12/05 07:55:38;;;;;;;10.18;5.22;;;;;;;-3.54;59.66;102664.35;1714607;83;21310;-69
2022/12/05 07:58:05;;;;;;;7.67;4.00;;;;;;;-3.51;59.67;102659.38;1745860;81;21516;-68
2022/12/05 08:00:31;;;;;;;9.10;4.65;;;;;;;-3.49;59.60;102656.64;1717121;81;21009;-69
2022/12/05 08:06:58;;;;;;;8.65;4.67;;;;;;;-3.43;59.68;102657.50;1752560;81;21069;-69
2022/12/05 08:09:27;;;;;;;9.43;4.90;;;;;;;-3.32;59.65;102657.55;1729354;83;21050;-71
2022/12/05 08:11:54;;;;;;;10.18;5.17;;;;;;;-3.25;59.48;102659.23;1730959;82;21541;-70
2022/12/05 08:14:22;;;;;;;10.03;5.37;;;;;;;-3.23;59.36;102647.70;1732728;82;22231;-70
2022/12/05 08:16:49;;;;;;;9.75;5.25;;;;;;;-3.17;59.32;102651.16;1723802;82;21817;-71
2022/12/05 08:19:15;;;;;;;8.78;5.17;;;;;;;-3.13;59.26;102653.06;1703243;83;21506;-70
2022/12/05 08:21:42;;;;;;;7.85;4.72;;;;;;;-3.05;59.25;102651.20;1703717;82;21217;-70
2022/12/05 08:24:09;;;;;;;9.63;5.20;;;;;;;-2.99;59.22;102652.88;1735447;81;21050;-71
2022/12/05 08:26:37;;;;;;;8.05;4.58;;;;;;;-2.95;59.00;102656.92;1687568;84;20992;-70
2022/12/05 08:29:10;;;;;;;8.85;4.80;;;;;;;-2.93;58.87;102652.42;1723303;81;21234;-70
2022/12/05 08:31:46;;;;;;;9.45;4.72;;;;;;;-2.93;58.78;102642.41;1722273;81;21009;-70
2022/12/05 08:34:13;;;;;;;11.80;4.92;;;;;;;-2.85;58.79;102643.98;1723767;81;20986;-70
2022/12/05 08:36:40;;;;;;;9.55;5.05;;;;;;;-2.81;58.78;102635.42;1723711;81;21115;-70
2022/12/05 08:39:08;;;;;;;8.53;5.10;;;;;;;-2.79;58.50;102632.22;1739675;81;21043;-68
2022/12/05 08:41:35;;;;;;;9.30;4.85;;;;;;;-2.83;58.49;102638.14;1742551;80;21079;-69
2022/12/05 08:44:04;;;;;;;9.45;4.90;;;;;;;-2.78;58.59;102630.78;1710705;83;21025;-69
2022/12/05 08:46:32;;;;;;;11.90;5.42;;;;;;;-2.73;58.65;102634.34;1734772;81;21042;-69
2022/12/05 08:48:59;;;;;;;9.78;5.40;;;;;;;-2.55;58.35;102628.17;1752228;80;21016;-69
2022/12/05 08:51:25;;;;;;;10.72;4.97;;;;;;;-2.55;58.35;102628.17;1715365;82;21018;-69
2022/12/05 08:53:52;;;;;;;9.23;5.00;;;;;;;-2.53;58.28;102623.63;1703514;83;21715;-69
2022/12/05 08:56:19;;;;;;;9.98;5.30;;;;;;;-2.47;58.42;102619.23;1703307;82;21069;-70
2022/12/05 08:58:45;;;;;;;10.05;4.97;;;;;;;-2.34;58.38;102614.69;1703632;83;21092;-68
2022/12/05 09:01:18;;;;;;;10.28;5.70;;;;;;;-2.34;58.38;102614.69;1753690;81;21006;-69
2022/12/05 09:03:45;;;;;;;9.20;5.03;;;;;;;-2.12;57.91;102604.66;1717167;83;20977;-68
2022/12/05 09:06:20;;;;;;;9.10;5.03;;;;;;;-2.12;57.91;102604.66;1693236;84;21176;-70
2022/12/05 09:08:47;;;;;;;10.10;5.22;;;;;;;-2.08;57.67;102594.91;1723632;83;21013;-69
2022/12/05 09:11:17;;;;;;;10.15;5.35;;;;;;;-2.10;57.81;102594.91;1693230;83;21036;-69
2022/12/05 09:13:45;;;;;;;11.53;5.17;;;;;;;-2.00;57.74;102599.75;1722145;82;21028;-68
2022/12/05 09:16:19;;;;;;;8.63;5.72;;;;;;;-1.93;57.74;102598.78;1728496;81;21053;-69
2022/12/05 09:18:48;;;;;;;9.80;5.20;;;;;;;-1.89;57.58;102588.40;1728686;83;21124;-69
2022/12/05 09:21:20;;;;;;;10.48;5.80;;;;;;;-1.85;57.66;102584.56;1727771;82;21003;-68
2022/12/05 09:23:48;;;;;;;10.10;5.67;;;;;;;-1.81;57.52;102580.77;1729338;81;21660;-70
2022/12/05 09:26:16;;;;;;;9.33;5.33;;;;;;;-1.76;57.36;102575.13;1729499;81;21015;-69
2022/12/05 09:28:43;;;;;;;10.15;5.83;;;;;;;-1.76;57.46;102572.52;1753834;81;21046;-70
2022/12/05 09:31:16;;;;;;;11.35;6.08;;;;;;;-1.77;57.32;102572.17;1720435;82;21242;-71
2022/12/05 09:33:43;;;;;;;10.48;5.28;;;;;;;-1.79;57.28;102573.59;1672807;84;21055;-70
2022/12/05 09:36:22;;;;;;;11.00;5.87;;;;;;;-1.70;57.46;102566.29;1717952;82;21609;-69
2022/12/05 09:38:49;;;;;;;9.68;6.08;;;;;;;-1.63;57.50;102569.23;1724205;81;21010;-71
2022/12/05 09:42:07;;;;;;;11.85;6.22;;;;;;;-1.41;57.58;102565.66;1722850;81;21100;-68
2022/12/05 09:45:25;;;;;;;10.38;5.95;;;;;;;-1.28;57.19;102565.47;1738045;82;21273;-70
2022/12/05 09:48:13;;;;;;;8.73;5.37;;;;;;;-1.24;56.82;102557.69;1737476;82;21139;-69
2022/12/05 09:50:53;;;;;;;8.88;4.85;;;;;;;-1.25;56.59;102559.94;1738232;81;21133;-68
2022/12/05 09:53:35;;;;;;;9.73;4.95;;;;;;;-1.27;56.55;102556.63;1753954;81;21640;-70
2022/12/05 09:56:14;;;;;;;;;;;;;;;-1.28;56.48;102556.29;1754004;80;21058;-71
2022/12/05 09:58:53;;;;;;;10.15;5.50;;;;;;;-1.27;56.56;102550.91;1748789;80;20554;-70
2022/12/05 10:15:41;;;;;;;11.60;7.13;;;;;;;-0.93;55.48;102541.45;1814826;78;24026;-74
2022/12/05 10:18:28;;;;;;;10.53;6.07;;;;;;;-1.12;55.26;102542.69;1810063;79;20979;-74
2022/12/05 10:21:05;;;;;;;10.03;6.62;;;;;;;-1.33;55.44;102540.93;1783464;79;22325;-74
2022/12/05 10:23:40;;;;;;;9.73;5.72;;;;;;;-1.49;55.75;102536.14;1766837;79;21009;-73
2022/12/05 10:26:08;;;;;;;11.33;5.85;;;;;;;-1.58;56.07;102536.08;1767495;81;20986;-74
2022/12/05 10:28:41;;;;;;;9.65;6.05;;;;;;;-1.67;56.34;102542.45;1766908;81;21032;-74
2022/12/05 10:31:12;;;;;;;11.20;6.03;;;;;;;-1.74;56.47;102541.31;1768508;79;20974;-73
2022/12/05 10:33:50;;;;;;;12.40;6.67;;;;;;;-1.77;56.65;102540.73;1797303;79;21504;-73
2022/12/05 10:36:17;;;;;;;8.80;5.70;;;;;;;-1.82;56.82;102547.64;1798763;79;20975;-73
2022/12/05 10:38:44;;;;;;;9.33;5.70;;;;;;;-1.84;56.93;102544.34;1771505;79;20994;-75
2022/12/05 10:41:12;;;;;;;9.83;6.05;;;;;;;-1.83;57.09;102536.83;1767580;81;21010;-75
2022/12/05 10:43:42;;;;;;;9.68;6.03;;;;;;;-1.80;56.99;102537.88;1766916;81;21161;-74
2022/12/05 10:46:11;;;;;;;9.18;5.80;;;;;;;-1.82;57.05;102536.34;1767313;81;21489;-74
2022/12/05 10:48:39;;;;;;;11.18;6.20;;;;;;;-1.83;57.09;102530.28;1767070;81;21228;-74
2022/12/05 10:51:06;;;;;;;9.85;5.85;;;;;;;-1.78;57.23;102531.19;1768278;79;21128;-73
2022/12/05 10:53:42;;;;;;;11.22;5.70;;;;;;;-1.72;57.21;102521.03;1766872;81;21137;-73
2022/12/05 10:56:44;;;;;;;8.35;4.95;;;;;;;-1.72;57.10;102522.34;1767575;81;21591;-73
2022/12/05 10:59:16;;;;;;;10.28;5.72;;;;;;;-1.69;57.24;102526.02;1795726;79;21126;-73
2022/12/05 11:01:50;;;;;;;9.23;5.42;;;;;;;-1.63;57.25;102522.07;1797006;79;21035;-73
2022/12/05 11:04:30;;;;;;;9.45;5.67;;;;;;;-1.60;57.10;102516.58;1798335;79;21782;-74
2022/12/05 11:07:01;;;;;;;9.45;5.60;;;;;;;-1.67;56.98;102514.95;1772004;79;20976;-74
2022/12/05 11:09:36;;;;;;;9.00;5.60;;;;;;;-1.76;57.07;102513.09;1777968;79;21072;-74
2022/12/05 11:12:36;;;;;;;11.50;6.33;;;;;;;-1.78;57.22;102509.75;1781426;79;21161;-74
2022/12/05 11:15:18;;;;;;;10.50;6.10;;;;;;;-1.74;57.45;102508.56;1770623;79;21169;-74
2022/12/05 11:17:45;;;;;;;9.23;6.03;;;;;;;-1.80;57.40;102501.21;1781220;79;26848;-73
2022/12/05 11:20:23;;;;;;;9.15;5.33;;;;;;;-1.81;57.51;102499.56;1770049;79;20983;-74
2022/12/05 11:22:55;;;;;;;9.13;5.55;;;;;;;-1.81;57.69;102500.87;1792912;79;21082;-73
2022/12/05 11:25:36;;;;;;;10.60;5.65;;;;;;;-1.84;57.83;102490.64;1792539;79;21125;-73
2022/12/05 11:28:22;;;;;;;11.12;5.40;;;;;;;-1.84;57.68;102493.27;1797047;79;21011;-73
2022/12/05 11:31:07;;;;;;;9.08;5.30;;;;;;;-1.86;57.71;102492.55;1797987;79;21493;-73
2022/12/05 11:33:35;;;;;;;9.90;5.85;;;;;;;-1.89;57.91;102480.53;1782021;79;21050;-74
2022/12/05 11:36:16;;;;;;;9.45;5.17;;;;;;;-1.95;58.10;102477.59;1790347;79;21101;-74
2022/12/05 11:38:43;;;;;;;10.48;5.37;;;;;;;-2.01;57.92;102478.09;1771564;79;21115;-73
2022/12/05 11:41:47;;;;;;;8.60;5.05;;;;;;;-2.07;58.15;102470.30;1769638;79;21002;-73
2022/12/05 11:44:48;;;;;;;9.08;5.30;;;;;;;-2.09;58.18;102470.89;1768242;79;20999;-74
2022/12/05 11:47:35;;;;;;;7.80;5.35;;;;;;;-2.14;58.48;102466.50;1769373;79;20995;-73
2022/12/05 11:50:40;;;;;;;9.70;5.50;;;;;;;-2.16;58.59;102447.48;1771632;77;21003;-74
2022/12/05 11:53:36;;;;;;;13.72;6.30;;;;;;;-2.23;58.70;102441.92;1769406;79;21238;-74
2022/12/05 11:56:52;;;;;;;10.23;5.92;;;;;;;-2.23;58.70;102441.92;1787043;79;21106;-73
2022/12/05 12:00:04;;;;;;;10.05;5.50;;;;;;;-2.25;58.67;102437.28;1775490;79;20955;-74
2022/12/05 12:03:00;;;;;;;12.55;6.28;;;;;;;-2.29;58.79;102446.35;1780688;79;20943;-74
2022/12/05 12:06:05;;;;;;;10.75;6.28;;;;;;;-2.30;58.86;102432.92;1784512;79;20948;-73
2022/12/05 12:08:46;;;;;;;10.18;5.03;;;;;;;-2.26;59.00;102427.78;1794966;79;21035;-75
2022/12/05 12:11:21;;;;;;;9.53;5.33;;;;;;;-2.23;58.94;102430.15;1731164;79;20984;-73
2022/12/05 12:14:19;;;;;;;11.18;6.65;;;;;;;-2.25;58.76;102425.50;1793054;79;21157;-74
2022/12/05 12:17:28;;;;;;;11.80;5.72;;;;;;;-2.28;58.76;102415.28;1770287;79;21532;-74
2022/12/05 12:20:21;;;;;;;10.13;5.35;;;;;;;-2.33;58.65;102413.55;1771439;79;20966;-74
2022/12/05 12:23:20;;;;;;;9.15;5.37;;;;;;;-2.31;58.79;102412.92;1766704;81;21287;-74
2022/12/05 12:26:11;;;;;;;9.45;5.53;;;;;;;-2.32;58.75;102411.27;1770493;79;21045;-75
2022/12/05 12:28:46;;;;;;;10.90;5.28;;;;;;;-2.27;58.62;102412.19;1769408;79;21105;-75
2022/12/05 12:32:01;;;;;;;14.28;6.17;;;;;;;-2.25;58.71;102409.80;1783120;79;21058;-73
2022/12/05 12:34:42;;;;;;;8.15;4.65;;;;;;;-2.25;58.62;102400.64;1769580;79;20927;-73
2022/12/05 12:37:46;;;;;;;11.03;6.00;;;;;;;-2.24;58.52;102400.16;1773183;79;21971;-72
2022/12/05 12:40:50;;;;;;;9.33;5.15;;;;;;;-2.22;58.42;102407.41;1770999;79;21023;-74
2022/12/05 12:44:00;;;;;;;9.85;5.45;;;;;;;-2.26;58.13;102404.70;1775952;79;20992;-73
2022/12/05 12:46:54;;;;;;;7.80;4.80;;;;;;;-2.36;58.04;102402.02;1774621;79;20995;-73